sensor_id;sensor_type;location;lat;lon;timestamp;P1;durP1;ratioP1;P2;durP2;ratioP2
13795;SDS011;40911;51.552;9.874;2023-03-01T00:01:31;15.00;;;12.00;;
13795;SDS011;40911;51.552;9.874;2023-03-01T00:03:53;15.95;;;11.50;;
13795;SDS011;40911;51.552;9.874;2023-03-01T00:06:16;16.77;;;11.75;;
13795;SDS011;40911;51.552;9.874;2023-03-01T00:08:37;16.70;;;11.15;;
13795;SDS011;40911;51.552;9.874;2023-03-01T00:11:00;16.27;;;11.55;;
13795;SDS011;40911;51.552;9.874;2023-03-01T00:13:24;15.88;;;11.68;;
13795;SDS011;40911;51.552;9.874;2023-03-01T00:15:46;15.40;;;11.63;;
13795;SDS011;40911;51.552;9.874;2023-03-01T00:18:07;15.45;;;11.00;;
13795;SDS011;40911;51.552;9.874;2023-03-01T00:20:29;15.68;;;11.35;;
13795;SDS011;40911;51.552;9.874;2023-03-01T00:22:50;15.00;;;11.10;;
13795;SDS011;40911;51.552;9.874;2023-03-01T00:25:12;14.02;;;10.88;;
13795;SDS011;40911;51.552;9.874;2023-03-01T00:27:34;15.02;;;11.20;;
13795;SDS011;40911;51.552;9.874;2023-03-01T00:29:57;15.00;;;11.25;;
13795;SDS011;40911;51.552;9.874;2023-03-01T00:32:18;16.52;;;11.02;;
13795;SDS011;40911;51.552;9.874;2023-03-01T00:34:40;17.77;;;11.80;;
13795;SDS011;40911;51.552;9.874;2023-03-01T00:37:01;25.35;;;13.93;;
13795;SDS011;40911;51.552;9.874;2023-03-01T00:39:25;20.20;;;11.25;;
13795;SDS011;40911;51.552;9.874;2023-03-01T00:41:46;17.70;;;11.07;;
13795;SDS011;40911;51.552;9.874;2023-03-01T00:44:08;15.52;;;10.20;;
13795;SDS011;40911;51.552;9.874;2023-03-01T00:46:31;13.57;;;9.95;;
13795;SDS011;40911;51.552;9.874;2023-03-01T00:48:54;14.73;;;10.68;;
13795;SDS011;40911;51.552;9.874;2023-03-01T00:51:16;15.65;;;10.48;;
13795;SDS011;40911;51.552;9.874;2023-03-01T00:53:39;13.18;;;10.38;;
13795;SDS011;40911;51.552;9.874;2023-03-01T00:56:01;15.32;;;10.05;;
13795;SDS011;40911;51.552;9.874;2023-03-01T00:58:23;16.58;;;9.48;;
13795;SDS011;40911;51.552;9.874;2023-03-01T01:00:45;11.32;;;9.30;;
13795;SDS011;40911;51.552;9.874;2023-03-01T01:03:08;12.65;;;9.65;;
13795;SDS011;40911;51.552;9.874;2023-03-01T01:05:29;12.57;;;10.40;;
13795;SDS011;40911;51.552;9.874;2023-03-01T01:07:51;11.23;;;9.48;;
13795;SDS011;40911;51.552;9.874;2023-03-01T01:10:13;11.48;;;9.23;;
13795;SDS011;40911;51.552;9.874;2023-03-01T01:12:36;12.77;;;10.00;;
13795;SDS011;40911;51.552;9.874;2023-03-01T01:14:58;14.38;;;10.73;;
13795;SDS011;40911;51.552;9.874;2023-03-01T01:17:20;13.38;;;9.85;;
13795;SDS011;40911;51.552;9.874;2023-03-01T01:19:43;13.20;;;10.68;;
13795;SDS011;40911;51.552;9.874;2023-03-01T01:22:04;13.75;;;9.95;;
13795;SDS011;40911;51.552;9.874;2023-03-01T01:24:26;15.40;;;10.77;;
13795;SDS011;40911;51.552;9.874;2023-03-01T01:26:47;15.82;;;10.65;;
13795;SDS011;40911;51.552;9.874;2023-03-01T01:29:09;12.85;;;9.73;;
13795;SDS011;40911;51.552;9.874;2023-03-01T01:31:31;11.98;;;10.38;;
13795;SDS011;40911;51.552;9.874;2023-03-01T01:33:54;15.40;;;10.43;;
13795;SDS011;40911;51.552;9.874;2023-03-01T01:36:18;13.00;;;10.75;;
13795;SDS011;40911;51.552;9.874;2023-03-01T01:38:39;12.65;;;10.23;;
13795;SDS011;40911;51.552;9.874;2023-03-01T01:41:02;19.95;;;11.60;;
13795;SDS011;40911;51.552;9.874;2023-03-01T01:43:25;14.05;;;10.82;;
13795;SDS011;40911;51.552;9.874;2023-03-01T01:45:49;15.57;;;10.82;;
13795;SDS011;40911;51.552;9.874;2023-03-01T01:48:12;15.57;;;10.98;;
13795;SDS011;40911;51.552;9.874;2023-03-01T01:50:38;13.15;;;10.48;;
13795;SDS011;40911;51.552;9.874;2023-03-01T01:53:03;12.52;;;10.57;;
13795;SDS011;40911;51.552;9.874;2023-03-01T01:55:28;16.73;;;10.80;;
13795;SDS011;40911;51.552;9.874;2023-03-01T01:57:52;14.57;;;11.00;;
13795;SDS011;40911;51.552;9.874;2023-03-01T02:00:17;13.88;;;10.60;;
13795;SDS011;40911;51.552;9.874;2023-03-01T02:02:39;14.63;;;10.82;;
13795;SDS011;40911;51.552;9.874;2023-03-01T02:05:05;11.55;;;10.32;;
13795;SDS011;40911;51.552;9.874;2023-03-01T02:07:31;13.52;;;10.75;;
13795;SDS011;40911;51.552;9.874;2023-03-01T02:09:55;14.10;;;10.63;;
13795;SDS011;40911;51.552;9.874;2023-03-01T02:12:18;12.88;;;9.95;;
13795;SDS011;40911;51.552;9.874;2023-03-01T02:14:42;15.50;;;11.23;;
13795;SDS011;40911;51.552;9.874;2023-03-01T02:19:31;15.07;;;10.63;;
13795;SDS011;40911;51.552;9.874;2023-03-01T02:22:05;15.68;;;10.63;;
13795;SDS011;40911;51.552;9.874;2023-03-01T02:24:37;14.63;;;10.93;;
13795;SDS011;40911;51.552;9.874;2023-03-01T02:27:08;13.45;;;10.57;;
13795;SDS011;40911;51.552;9.874;2023-03-01T02:29:32;13.68;;;10.70;;
13795;SDS011;40911;51.552;9.874;2023-03-01T02:31:54;14.52;;;11.52;;
13795;SDS011;40911;51.552;9.874;2023-03-01T02:34:17;14.57;;;11.00;;
13795;SDS011;40911;51.552;9.874;2023-03-01T02:36:41;13.48;;;10.65;;
13795;SDS011;40911;51.552;9.874;2023-03-01T02:39:07;16.73;;;10.35;;
13795;SDS011;40911;51.552;9.874;2023-03-01T02:41:35;14.15;;;10.23;;
13795;SDS011;40911;51.552;9.874;2023-03-01T02:43:57;14.98;;;11.25;;
13795;SDS011;40911;51.552;9.874;2023-03-01T02:46:22;14.75;;;11.05;;
13795;SDS011;40911;51.552;9.874;2023-03-01T02:48:46;17.48;;;10.82;;
13795;SDS011;40911;51.552;9.874;2023-03-01T02:51:11;15.07;;;10.40;;
13795;SDS011;40911;51.552;9.874;2023-03-01T02:53:45;13.88;;;10.18;;
13795;SDS011;40911;51.552;9.874;2023-03-01T02:56:14;13.80;;;10.10;;
13795;SDS011;40911;51.552;9.874;2023-03-01T02:58:36;15.10;;;10.95;;
13795;SDS011;40911;51.552;9.874;2023-03-01T03:01:05;13.73;;;10.30;;
13795;SDS011;40911;51.552;9.874;2023-03-01T03:03:30;13.85;;;11.18;;
13795;SDS011;40911;51.552;9.874;2023-03-01T03:05:52;13.93;;;10.13;;
13795;SDS011;40911;51.552;9.874;2023-03-01T03:08:14;14.88;;;10.45;;
13795;SDS011;40911;51.552;9.874;2023-03-01T03:10:43;15.80;;;11.32;;
13795;SDS011;40911;51.552;9.874;2023-03-01T03:13:06;13.45;;;11.25;;
13795;SDS011;40911;51.552;9.874;2023-03-01T03:15:29;11.77;;;10.00;;
13795;SDS011;40911;51.552;9.874;2023-03-01T03:17:51;14.05;;;11.18;;
13795;SDS011;40911;51.552;9.874;2023-03-01T03:22:39;15.18;;;11.13;;
13795;SDS011;40911;51.552;9.874;2023-03-01T03:27:23;13.52;;;11.20;;
13795;SDS011;40911;51.552;9.874;2023-03-01T03:29:44;15.88;;;11.38;;
13795;SDS011;40911;51.552;9.874;2023-03-01T03:32:06;14.30;;;10.65;;
13795;SDS011;40911;51.552;9.874;2023-03-01T03:34:27;12.18;;;10.38;;
13795;SDS011;40911;51.552;9.874;2023-03-01T03:36:53;15.57;;;11.23;;
13795;SDS011;40911;51.552;9.874;2023-03-01T03:39:19;16.98;;;10.85;;
13795;SDS011;40911;51.552;9.874;2023-03-01T03:41:41;12.77;;;10.63;;
13795;SDS011;40911;51.552;9.874;2023-03-01T03:44:02;13.65;;;10.40;;
13795;SDS011;40911;51.552;9.874;2023-03-01T03:48:46;13.82;;;10.55;;
13795;SDS011;40911;51.552;9.874;2023-03-01T03:51:09;14.73;;;10.93;;
13795;SDS011;40911;51.552;9.874;2023-03-01T03:53:33;14.95;;;10.70;;
13795;SDS011;40911;51.552;9.874;2023-03-01T03:55:55;13.50;;;11.02;;
13795;SDS011;40911;51.552;9.874;2023-03-01T03:58:17;17.33;;;10.63;;
13795;SDS011;40911;51.552;9.874;2023-03-01T04:00:41;14.93;;;10.75;;
13795;SDS011;40911;51.552;9.874;2023-03-01T04:03:03;15.65;;;10.63;;
13795;SDS011;40911;51.552;9.874;2023-03-01T04:05:26;14.85;;;10.77;;
13795;SDS011;40911;51.552;9.874;2023-03-01T04:07:48;15.43;;;11.27;;
13795;SDS011;40911;51.552;9.874;2023-03-01T04:10:22;12.73;;;10.68;;
13795;SDS011;40911;51.552;9.874;2023-03-01T04:12:44;14.30;;;11.25;;
13795;SDS011;40911;51.552;9.874;2023-03-01T04:17:33;14.60;;;10.55;;
13795;SDS011;40911;51.552;9.874;2023-03-01T04:19:55;12.30;;;10.38;;
13795;SDS011;40911;51.552;9.874;2023-03-01T04:22:16;14.48;;;11.05;;
13795;SDS011;40911;51.552;9.874;2023-03-01T04:24:38;11.73;;;10.52;;
13795;SDS011;40911;51.552;9.874;2023-03-01T04:27:01;18.42;;;11.55;;
13795;SDS011;40911;51.552;9.874;2023-03-01T04:29:23;13.30;;;11.18;;
13795;SDS011;40911;51.552;9.874;2023-03-01T04:31:44;14.05;;;11.82;;
13795;SDS011;40911;51.552;9.874;2023-03-01T04:34:06;16.55;;;11.23;;
13795;SDS011;40911;51.552;9.874;2023-03-01T04:36:28;19.42;;;11.90;;
13795;SDS011;40911;51.552;9.874;2023-03-01T04:38:50;16.38;;;11.50;;
13795;SDS011;40911;51.552;9.874;2023-03-01T04:41:12;16.92;;;11.60;;
13795;SDS011;40911;51.552;9.874;2023-03-01T04:43:36;18.65;;;11.63;;
13795;SDS011;40911;51.552;9.874;2023-03-01T04:45:59;13.95;;;11.25;;
13795;SDS011;40911;51.552;9.874;2023-03-01T04:48:22;13.35;;;11.65;;
13795;SDS011;40911;51.552;9.874;2023-03-01T04:50:44;18.25;;;12.52;;
13795;SDS011;40911;51.552;9.874;2023-03-01T04:53:05;18.05;;;12.65;;
13795;SDS011;40911;51.552;9.874;2023-03-01T04:55:27;14.70;;;11.48;;
13795;SDS011;40911;51.552;9.874;2023-03-01T04:57:49;13.07;;;11.43;;
13795;SDS011;40911;51.552;9.874;2023-03-01T05:00:13;14.82;;;11.52;;
13795;SDS011;40911;51.552;9.874;2023-03-01T05:02:41;15.38;;;11.65;;
13795;SDS011;40911;51.552;9.874;2023-03-01T05:05:03;14.38;;;12.20;;
13795;SDS011;40911;51.552;9.874;2023-03-01T05:07:25;15.07;;;11.25;;
13795;SDS011;40911;51.552;9.874;2023-03-01T05:09:47;16.85;;;11.77;;
13795;SDS011;40911;51.552;9.874;2023-03-01T05:12:09;17.98;;;11.38;;
13795;SDS011;40911;51.552;9.874;2023-03-01T05:14:31;15.73;;;11.43;;
13795;SDS011;40911;51.552;9.874;2023-03-01T05:16:54;16.70;;;10.70;;
13795;SDS011;40911;51.552;9.874;2023-03-01T05:19:15;15.45;;;11.45;;
13795;SDS011;40911;51.552;9.874;2023-03-01T05:21:42;15.80;;;11.52;;
13795;SDS011;40911;51.552;9.874;2023-03-01T05:24:23;15.93;;;11.13;;
13795;SDS011;40911;51.552;9.874;2023-03-01T05:26:45;16.92;;;11.65;;
13795;SDS011;40911;51.552;9.874;2023-03-01T05:29:08;15.57;;;12.00;;
13795;SDS011;40911;51.552;9.874;2023-03-01T05:31:29;16.38;;;12.68;;
13795;SDS011;40911;51.552;9.874;2023-03-01T05:36:14;18.17;;;12.27;;
13795;SDS011;40911;51.552;9.874;2023-03-01T05:38:35;19.13;;;13.75;;
13795;SDS011;40911;51.552;9.874;2023-03-01T05:40:57;15.18;;;11.85;;
13795;SDS011;40911;51.552;9.874;2023-03-01T05:43:19;20.15;;;12.23;;
13795;SDS011;40911;51.552;9.874;2023-03-01T05:45:41;17.23;;;12.38;;
13795;SDS011;40911;51.552;9.874;2023-03-01T05:48:03;19.50;;;12.20;;
13795;SDS011;40911;51.552;9.874;2023-03-01T05:50:28;17.17;;;12.40;;
13795;SDS011;40911;51.552;9.874;2023-03-01T05:52:51;17.50;;;13.20;;
13795;SDS011;40911;51.552;9.874;2023-03-01T05:55:19;18.75;;;12.60;;
13795;SDS011;40911;51.552;9.874;2023-03-01T05:57:42;15.35;;;12.88;;
13795;SDS011;40911;51.552;9.874;2023-03-01T06:00:04;16.38;;;12.05;;
13795;SDS011;40911;51.552;9.874;2023-03-01T06:02:26;20.88;;;12.40;;
13795;SDS011;40911;51.552;9.874;2023-03-01T06:04:49;15.57;;;11.60;;
13795;SDS011;40911;51.552;9.874;2023-03-01T06:07:12;23.85;;;14.82;;
13795;SDS011;40911;51.552;9.874;2023-03-01T06:09:33;16.13;;;13.10;;
13795;SDS011;40911;51.552;9.874;2023-03-01T06:11:55;17.00;;;12.48;;
13795;SDS011;40911;51.552;9.874;2023-03-01T06:14:16;17.90;;;13.50;;
13795;SDS011;40911;51.552;9.874;2023-03-01T06:16:38;16.02;;;12.57;;
13795;SDS011;40911;51.552;9.874;2023-03-01T06:19:00;15.77;;;12.70;;
13795;SDS011;40911;51.552;9.874;2023-03-01T06:21:22;16.45;;;12.55;;
13795;SDS011;40911;51.552;9.874;2023-03-01T06:23:45;20.63;;;12.38;;
13795;SDS011;40911;51.552;9.874;2023-03-01T06:26:07;16.05;;;11.65;;
13795;SDS011;40911;51.552;9.874;2023-03-01T06:28:29;12.52;;;11.02;;
13795;SDS011;40911;51.552;9.874;2023-03-01T06:30:50;16.02;;;12.50;;
13795;SDS011;40911;51.552;9.874;2023-03-01T06:33:12;14.15;;;12.50;;
13795;SDS011;40911;51.552;9.874;2023-03-01T06:37:55;15.10;;;12.02;;
13795;SDS011;40911;51.552;9.874;2023-03-01T06:40:19;14.15;;;11.82;;
13795;SDS011;40911;51.552;9.874;2023-03-01T06:42:42;18.48;;;13.32;;
13795;SDS011;40911;51.552;9.874;2023-03-01T06:45:05;17.40;;;13.50;;
13795;SDS011;40911;51.552;9.874;2023-03-01T06:47:27;16.15;;;12.63;;
13795;SDS011;40911;51.552;9.874;2023-03-01T06:49:49;19.67;;;13.18;;
13795;SDS011;40911;51.552;9.874;2023-03-01T06:52:10;22.08;;;14.75;;
13795;SDS011;40911;51.552;9.874;2023-03-01T06:54:32;22.38;;;14.60;;
13795;SDS011;40911;51.552;9.874;2023-03-01T06:59:16;18.60;;;12.68;;
13795;SDS011;40911;51.552;9.874;2023-03-01T07:01:38;19.73;;;13.18;;
13795;SDS011;40911;51.552;9.874;2023-03-01T07:04:00;20.73;;;14.15;;
13795;SDS011;40911;51.552;9.874;2023-03-01T07:06:22;19.75;;;13.43;;
13795;SDS011;40911;51.552;9.874;2023-03-01T07:08:44;25.10;;;16.30;;
13795;SDS011;40911;51.552;9.874;2023-03-01T07:13:29;18.88;;;13.60;;
13795;SDS011;40911;51.552;9.874;2023-03-01T07:15:51;18.80;;;13.07;;
13795;SDS011;40911;51.552;9.874;2023-03-01T07:20:34;18.02;;;12.95;;
13795;SDS011;40911;51.552;9.874;2023-03-01T07:25:18;17.88;;;11.45;;
13795;SDS011;40911;51.552;9.874;2023-03-01T07:27:40;17.33;;;12.23;;
13795;SDS011;40911;51.552;9.874;2023-03-01T07:30:03;16.63;;;11.98;;
13795;SDS011;40911;51.552;9.874;2023-03-01T07:32:25;17.60;;;11.90;;
13795;SDS011;40911;51.552;9.874;2023-03-01T07:34:47;21.00;;;12.85;;
13795;SDS011;40911;51.552;9.874;2023-03-01T07:37:08;17.58;;;11.77;;
13795;SDS011;40911;51.552;9.874;2023-03-01T07:39:30;17.83;;;11.48;;
13795;SDS011;40911;51.552;9.874;2023-03-01T07:41:52;16.00;;;11.88;;
13795;SDS011;40911;51.552;9.874;2023-03-01T07:44:13;11.85;;;10.65;;
13795;SDS011;40911;51.552;9.874;2023-03-01T07:46:36;21.90;;;11.45;;
13795;SDS011;40911;51.552;9.874;2023-03-01T07:48:58;14.80;;;11.30;;
13795;SDS011;40911;51.552;9.874;2023-03-01T07:51:19;14.48;;;11.05;;
13795;SDS011;40911;51.552;9.874;2023-03-01T07:53:41;15.68;;;11.52;;
13795;SDS011;40911;51.552;9.874;2023-03-01T07:56:03;14.30;;;10.43;;
13795;SDS011;40911;51.552;9.874;2023-03-01T07:58:26;14.23;;;10.93;;
13795;SDS011;40911;51.552;9.874;2023-03-01T08:00:47;15.18;;;11.10;;
13795;SDS011;40911;51.552;9.874;2023-03-01T08:03:10;20.33;;;12.10;;
13795;SDS011;40911;51.552;9.874;2023-03-01T08:05:32;14.00;;;10.27;;
13795;SDS011;40911;51.552;9.874;2023-03-01T08:07:53;13.98;;;10.63;;
13795;SDS011;40911;51.552;9.874;2023-03-01T08:10:15;13.85;;;10.75;;
13795;SDS011;40911;51.552;9.874;2023-03-01T08:12:37;16.00;;;11.18;;
13795;SDS011;40911;51.552;9.874;2023-03-01T08:14:59;15.45;;;11.55;;
13795;SDS011;40911;51.552;9.874;2023-03-01T08:17:20;17.25;;;10.43;;
13795;SDS011;40911;51.552;9.874;2023-03-01T08:19:43;14.57;;;10.80;;
13795;SDS011;40911;51.552;9.874;2023-03-01T08:22:05;12.35;;;10.20;;
13795;SDS011;40911;51.552;9.874;2023-03-01T08:24:27;17.20;;;11.55;;
13795;SDS011;40911;51.552;9.874;2023-03-01T08:26:49;17.15;;;10.90;;
13795;SDS011;40911;51.552;9.874;2023-03-01T08:29:10;17.00;;;10.60;;
13795;SDS011;40911;51.552;9.874;2023-03-01T08:31:33;14.10;;;11.07;;
13795;SDS011;40911;51.552;9.874;2023-03-01T08:33:57;13.40;;;10.65;;
13795;SDS011;40911;51.552;9.874;2023-03-01T08:36:21;12.50;;;10.23;;
13795;SDS011;40911;51.552;9.874;2023-03-01T08:38:43;15.05;;;10.82;;
13795;SDS011;40911;51.552;9.874;2023-03-01T08:41:05;12.27;;;9.85;;
13795;SDS011;40911;51.552;9.874;2023-03-01T08:43:27;14.90;;;10.20;;
13795;SDS011;40911;51.552;9.874;2023-03-01T08:48:10;15.43;;;10.13;;
13795;SDS011;40911;51.552;9.874;2023-03-01T08:50:32;16.25;;;10.07;;
13795;SDS011;40911;51.552;9.874;2023-03-01T08:52:54;12.60;;;9.32;;
13795;SDS011;40911;51.552;9.874;2023-03-01T08:55:16;12.25;;;9.85;;
13795;SDS011;40911;51.552;9.874;2023-03-01T08:57:38;15.20;;;10.32;;
13795;SDS011;40911;51.552;9.874;2023-03-01T08:59:59;14.45;;;10.10;;
13795;SDS011;40911;51.552;9.874;2023-03-01T09:02:21;11.38;;;9.50;;
13795;SDS011;40911;51.552;9.874;2023-03-01T09:04:43;11.00;;;8.80;;
13795;SDS011;40911;51.552;9.874;2023-03-01T09:07:05;11.98;;;9.02;;
13795;SDS011;40911;51.552;9.874;2023-03-01T09:09:28;9.82;;;8.32;;
13795;SDS011;40911;51.552;9.874;2023-03-01T09:11:50;10.30;;;8.43;;
13795;SDS011;40911;51.552;9.874;2023-03-01T09:14:11;12.63;;;8.73;;
13795;SDS011;40911;51.552;9.874;2023-03-01T09:16:33;12.85;;;8.45;;
13795;SDS011;40911;51.552;9.874;2023-03-01T09:18:56;14.13;;;8.82;;
13795;SDS011;40911;51.552;9.874;2023-03-01T09:21:18;10.85;;;7.93;;
13795;SDS011;40911;51.552;9.874;2023-03-01T09:23:41;12.75;;;9.25;;
13795;SDS011;40911;51.552;9.874;2023-03-01T09:26:06;14.73;;;8.70;;
13795;SDS011;40911;51.552;9.874;2023-03-01T09:28:28;8.75;;;7.80;;
13795;SDS011;40911;51.552;9.874;2023-03-01T09:33:12;12.23;;;8.37;;
13795;SDS011;40911;51.552;9.874;2023-03-01T09:35:34;10.88;;;8.27;;
13795;SDS011;40911;51.552;9.874;2023-03-01T09:37:56;13.55;;;8.13;;
13795;SDS011;40911;51.552;9.874;2023-03-01T09:40:18;11.35;;;8.30;;
13795;SDS011;40911;51.552;9.874;2023-03-01T09:42:48;16.20;;;9.10;;
13795;SDS011;40911;51.552;9.874;2023-03-01T09:45:15;12.57;;;8.35;;
13795;SDS011;40911;51.552;9.874;2023-03-01T09:47:46;13.95;;;9.05;;
13795;SDS011;40911;51.552;9.874;2023-03-01T09:50:09;14.00;;;8.43;;
13795;SDS011;40911;51.552;9.874;2023-03-01T09:52:36;11.02;;;8.60;;
13795;SDS011;40911;51.552;9.874;2023-03-01T09:55:01;14.05;;;8.95;;
13795;SDS011;40911;51.552;9.874;2023-03-01T09:57:33;10.10;;;8.07;;
13795;SDS011;40911;51.552;9.874;2023-03-01T10:02:56;13.98;;;8.73;;
13795;SDS011;40911;51.552;9.874;2023-03-01T10:05:31;15.27;;;8.45;;
13795;SDS011;40911;51.552;9.874;2023-03-01T10:08:01;14.65;;;8.70;;
13795;SDS011;40911;51.552;9.874;2023-03-01T10:10:34;10.75;;;7.50;;
13795;SDS011;40911;51.552;9.874;2023-03-01T10:12:59;12.88;;;7.95;;
13795;SDS011;40911;51.552;9.874;2023-03-01T10:15:25;9.75;;;7.60;;
13795;SDS011;40911;51.552;9.874;2023-03-01T10:17:55;11.55;;;8.25;;
13795;SDS011;40911;51.552;9.874;2023-03-01T10:20:20;14.32;;;8.50;;
13795;SDS011;40911;51.552;9.874;2023-03-01T10:22:43;14.60;;;8.18;;
13795;SDS011;40911;51.552;9.874;2023-03-01T10:25:11;9.75;;;7.00;;
13795;SDS011;40911;51.552;9.874;2023-03-01T10:27:37;12.98;;;8.73;;
13795;SDS011;40911;51.552;9.874;2023-03-01T10:30:09;10.20;;;7.40;;
13795;SDS011;40911;51.552;9.874;2023-03-01T10:32:38;10.73;;;8.10;;
13795;SDS011;40911;51.552;9.874;2023-03-01T10:35:00;12.98;;;7.93;;
13795;SDS011;40911;51.552;9.874;2023-03-01T10:37:22;10.70;;;7.38;;
13795;SDS011;40911;51.552;9.874;2023-03-01T10:39:55;13.95;;;8.55;;
13795;SDS011;40911;51.552;9.874;2023-03-01T10:42:19;11.65;;;7.80;;
13795;SDS011;40911;51.552;9.874;2023-03-01T10:44:47;12.25;;;7.70;;
13795;SDS011;40911;51.552;9.874;2023-03-01T10:47:14;11.90;;;8.02;;
13795;SDS011;40911;51.552;9.874;2023-03-01T10:49:39;14.55;;;7.70;;
13795;SDS011;40911;51.552;9.874;2023-03-01T10:52:17;14.13;;;7.63;;
13795;SDS011;40911;51.552;9.874;2023-03-01T10:54:40;10.70;;;7.60;;
13795;SDS011;40911;51.552;9.874;2023-03-01T10:57:22;12.05;;;7.68;;
13795;SDS011;40911;51.552;9.874;2023-03-01T10:59:51;15.93;;;8.13;;
13795;SDS011;40911;51.552;9.874;2023-03-01T11:02:23;11.48;;;8.48;;
13795;SDS011;40911;51.552;9.874;2023-03-01T11:04:58;12.40;;;7.72;;
13795;SDS011;40911;51.552;9.874;2023-03-01T11:07:20;12.48;;;8.00;;
13795;SDS011;40911;51.552;9.874;2023-03-01T11:09:42;12.85;;;8.07;;
13795;SDS011;40911;51.552;9.874;2023-03-01T11:12:04;12.00;;;7.80;;
13795;SDS011;40911;51.552;9.874;2023-03-01T11:14:35;11.07;;;7.97;;
13795;SDS011;40911;51.552;9.874;2023-03-01T11:17:01;12.18;;;8.52;;
13795;SDS011;40911;51.552;9.874;2023-03-01T11:19:24;11.23;;;7.40;;
13795;SDS011;40911;51.552;9.874;2023-03-01T11:21:57;16.23;;;8.88;;
13795;SDS011;40911;51.552;9.874;2023-03-01T11:24:23;12.43;;;7.78;;
13795;SDS011;40911;51.552;9.874;2023-03-01T11:26:50;11.30;;;7.43;;
13795;SDS011;40911;51.552;9.874;2023-03-01T11:29:17;8.35;;;6.45;;
13795;SDS011;40911;51.552;9.874;2023-03-01T11:31:47;7.97;;;6.38;;
13795;SDS011;40911;51.552;9.874;2023-03-01T11:34:11;9.27;;;6.72;;
13795;SDS011;40911;51.552;9.874;2023-03-01T11:36:37;9.55;;;7.00;;
13795;SDS011;40911;51.552;9.874;2023-03-01T11:39:05;10.88;;;6.80;;
13795;SDS011;40911;51.552;9.874;2023-03-01T11:41:39;9.95;;;6.78;;
13795;SDS011;40911;51.552;9.874;2023-03-01T11:44:03;12.95;;;6.88;;
13795;SDS011;40911;51.552;9.874;2023-03-01T11:46:36;7.82;;;6.18;;
13795;SDS011;40911;51.552;9.874;2023-03-01T11:49:12;9.02;;;6.22;;
13795;SDS011;40911;51.552;9.874;2023-03-01T11:51:55;10.38;;;6.15;;
13795;SDS011;40911;51.552;9.874;2023-03-01T11:54:30;8.43;;;5.53;;
13795;SDS011;40911;51.552;9.874;2023-03-01T11:57:03;10.40;;;6.22;;
13795;SDS011;40911;51.552;9.874;2023-03-01T11:59:45;8.67;;;6.47;;
13795;SDS011;40911;51.552;9.874;2023-03-01T12:02:44;9.73;;;6.72;;
13795;SDS011;40911;51.552;9.874;2023-03-01T12:08:19;9.20;;;6.28;;
13795;SDS011;40911;51.552;9.874;2023-03-01T12:10:51;10.20;;;7.10;;
13795;SDS011;40911;51.552;9.874;2023-03-01T12:13:22;11.93;;;7.95;;
13795;SDS011;40911;51.552;9.874;2023-03-01T12:16:07;11.50;;;6.70;;
13795;SDS011;40911;51.552;9.874;2023-03-01T12:18:46;9.35;;;7.13;;
13795;SDS011;40911;51.552;9.874;2023-03-01T12:21:26;9.73;;;6.70;;
13795;SDS011;40911;51.552;9.874;2023-03-01T12:24:08;10.07;;;7.43;;
13795;SDS011;40911;51.552;9.874;2023-03-01T12:26:40;9.10;;;6.82;;
13795;SDS011;40911;51.552;9.874;2023-03-01T12:31:49;11.32;;;7.30;;
13795;SDS011;40911;51.552;9.874;2023-03-01T12:34:37;11.60;;;7.53;;
13795;SDS011;40911;51.552;9.874;2023-03-01T12:37:14;9.40;;;7.07;;
13795;SDS011;40911;51.552;9.874;2023-03-01T12:39:52;10.20;;;7.93;;
13795;SDS011;40911;51.552;9.874;2023-03-01T12:42:27;10.02;;;7.47;;
13795;SDS011;40911;51.552;9.874;2023-03-01T12:44:58;11.18;;;7.55;;
13795;SDS011;40911;51.552;9.874;2023-03-01T12:47:42;10.27;;;7.85;;
13795;SDS011;40911;51.552;9.874;2023-03-01T12:50:16;9.88;;;7.53;;
13795;SDS011;40911;51.552;9.874;2023-03-01T12:52:42;11.05;;;7.30;;
13795;SDS011;40911;51.552;9.874;2023-03-01T12:55:08;8.88;;;7.07;;
13795;SDS011;40911;51.552;9.874;2023-03-01T12:57:48;11.13;;;7.43;;
13795;SDS011;40911;51.552;9.874;2023-03-01T13:00:18;11.05;;;7.13;;
13795;SDS011;40911;51.552;9.874;2023-03-01T13:02:48;8.85;;;6.90;;
13795;SDS011;40911;51.552;9.874;2023-03-01T13:05:19;10.05;;;7.38;;
13795;SDS011;40911;51.552;9.874;2023-03-01T13:07:50;8.68;;;7.10;;
13795;SDS011;40911;51.552;9.874;2023-03-01T13:10:20;9.07;;;6.90;;
13795;SDS011;40911;51.552;9.874;2023-03-01T13:12:53;13.27;;;7.63;;
13795;SDS011;40911;51.552;9.874;2023-03-01T13:15:27;11.73;;;6.70;;
13795;SDS011;40911;51.552;9.874;2023-03-01T13:17:51;10.10;;;7.20;;
13795;SDS011;40911;51.552;9.874;2023-03-01T13:20:15;11.15;;;6.93;;
13795;SDS011;40911;51.552;9.874;2023-03-01T13:22:39;12.07;;;7.18;;
13795;SDS011;40911;51.552;9.874;2023-03-01T13:25:01;9.77;;;7.28;;
13795;SDS011;40911;51.552;9.874;2023-03-01T13:27:32;11.13;;;7.13;;
13795;SDS011;40911;51.552;9.874;2023-03-01T13:29:56;10.80;;;6.95;;
13795;SDS011;40911;51.552;9.874;2023-03-01T13:32:23;10.57;;;7.57;;
13795;SDS011;40911;51.552;9.874;2023-03-01T13:34:49;9.68;;;6.90;;
13795;SDS011;40911;51.552;9.874;2023-03-01T13:37:18;10.85;;;7.07;;
13795;SDS011;40911;51.552;9.874;2023-03-01T13:39:41;10.82;;;7.20;;
13795;SDS011;40911;51.552;9.874;2023-03-01T13:42:03;10.15;;;7.05;;
13795;SDS011;40911;51.552;9.874;2023-03-01T13:44:25;8.25;;;6.20;;
13795;SDS011;40911;51.552;9.874;2023-03-01T13:46:56;8.10;;;6.70;;
13795;SDS011;40911;51.552;9.874;2023-03-01T13:49:19;8.27;;;6.75;;
13795;SDS011;40911;51.552;9.874;2023-03-01T13:51:45;10.40;;;6.85;;
13795;SDS011;40911;51.552;9.874;2023-03-01T13:54:09;10.00;;;7.07;;
13795;SDS011;40911;51.552;9.874;2023-03-01T13:56:35;9.60;;;7.00;;
13795;SDS011;40911;51.552;9.874;2023-03-01T13:58:58;11.05;;;6.88;;
13795;SDS011;40911;51.552;9.874;2023-03-01T14:01:24;10.45;;;6.90;;
13795;SDS011;40911;51.552;9.874;2023-03-01T14:03:50;12.00;;;7.25;;
13795;SDS011;40911;51.552;9.874;2023-03-01T14:06:13;9.80;;;7.10;;
13795;SDS011;40911;51.552;9.874;2023-03-01T14:08:37;11.35;;;7.00;;
13795;SDS011;40911;51.552;9.874;2023-03-01T14:13:48;12.02;;;7.13;;
13795;SDS011;40911;51.552;9.874;2023-03-01T14:16:21;14.48;;;6.80;;
13795;SDS011;40911;51.552;9.874;2023-03-01T14:18:54;11.20;;;7.47;;
13795;SDS011;40911;51.552;9.874;2023-03-01T14:21:23;13.30;;;7.28;;
13795;SDS011;40911;51.552;9.874;2023-03-01T14:23:45;12.43;;;8.07;;
13795;SDS011;40911;51.552;9.874;2023-03-01T14:26:07;12.13;;;8.20;;
13795;SDS011;40911;51.552;9.874;2023-03-01T14:28:31;10.07;;;7.45;;
13795;SDS011;40911;51.552;9.874;2023-03-01T14:30:54;12.55;;;8.35;;
13795;SDS011;40911;51.552;9.874;2023-03-01T14:33:19;9.02;;;7.25;;
13795;SDS011;40911;51.552;9.874;2023-03-01T14:35:51;11.02;;;7.25;;
13795;SDS011;40911;51.552;9.874;2023-03-01T14:38:19;12.05;;;7.35;;
13795;SDS011;40911;51.552;9.874;2023-03-01T14:40:42;11.52;;;7.93;;
13795;SDS011;40911;51.552;9.874;2023-03-01T14:43:08;13.68;;;8.52;;
13795;SDS011;40911;51.552;9.874;2023-03-01T14:45:32;13.98;;;8.75;;
13795;SDS011;40911;51.552;9.874;2023-03-01T14:47:53;12.00;;;7.40;;
13795;SDS011;40911;51.552;9.874;2023-03-01T14:50:23;11.60;;;7.30;;
13795;SDS011;40911;51.552;9.874;2023-03-01T14:52:48;9.38;;;7.00;;
13795;SDS011;40911;51.552;9.874;2023-03-01T14:55:13;10.43;;;7.20;;
13795;SDS011;40911;51.552;9.874;2023-03-01T14:57:38;8.55;;;6.80;;